createdAt,value
2022-09-26T00:01:34.587Z,73.95
2022-09-26T00:04:07.970Z,73.51
2022-09-26T00:06:35.557Z,73.75
2022-09-26T00:09:03.141Z,73.85
2022-09-26T00:11:33.052Z,73.94
2022-09-26T00:14:04.714Z,73.99
2022-09-26T00:16:33.040Z,73.74
2022-09-26T00:19:04.203Z,73.24
2022-09-26T00:21:32.316Z,73.54
2022-09-26T00:24:01.644Z,73.19
2022-09-26T00:26:31.128Z,73.40
2022-09-26T00:29:01.164Z,72.61
2022-09-26T00:31:32.061Z,72.17
2022-09-26T00:34:00.625Z,71.85
2022-09-26T00:36:37.369Z,71.24
2022-09-26T00:39:08.484Z,71.05
2022-09-26T00:41:36.833Z,71.45
2022-09-26T00:44:24.375Z,70.53
2022-09-26T00:46:52.523Z,70.52
2022-09-26T00:49:34.652Z,70.01
2022-09-26T00:52:26.449Z,69.87
2022-09-26T00:54:56.983Z,70.11
2022-09-26T00:57:37.873Z,69.71
2022-09-26T01:00:09.422Z,70.14
2022-09-26T01:02:37.713Z,69.99
2022-09-26T01:05:06.916Z,70.08
2022-09-26T01:07:35.425Z,70.17
2022-09-26T01:10:05.127Z,69.95
2022-09-26T01:12:33.199Z,69.98
2022-09-26T01:15:01.503Z,70.10
2022-09-26T01:17:29.077Z,69.93
2022-09-26T01:20:18.074Z,70.32
2022-09-26T01:23:19.420Z,70.20
2022-09-26T01:25:59.249Z,70.11
2022-09-26T01:28:49.015Z,70.25
2022-09-26T01:31:32.510Z,70.00
2022-09-26T01:34:24.249Z,69.71
2022-09-26T01:37:23.994Z,70.37
2022-09-26T01:40:22.240Z,69.82
2022-09-26T01:42:54.993Z,69.85
2022-09-26T01:45:29.096Z,69.78
2022-09-26T01:48:31.005Z,69.51
2022-09-26T01:51:33.299Z,70.02
2022-09-26T01:54:12.746Z,70.22
2022-09-26T01:56:42.048Z,70.15
2022-09-26T01:59:32.064Z,70.14
2022-09-26T02:02:10.946Z,70.34
2022-09-26T02:04:44.646Z,70.85
2022-09-26T02:07:16.936Z,71.48
2022-09-26T02:09:56.932Z,71.85
2022-09-26T02:12:32.922Z,71.80
2022-09-26T02:15:06.495Z,72.04
2022-09-26T02:17:40.245Z,72.59
2022-09-26T02:20:35.172Z,72.90
2022-09-26T02:23:04.363Z,72.92
2022-09-26T02:25:33.165Z,73.28
2022-09-26T02:28:01.202Z,73.45
2022-09-26T02:30:29.398Z,74.01
2022-09-26T02:32:57.096Z,74.23
2022-09-26T02:35:44.484Z,73.50
2022-09-26T02:38:13.532Z,73.66
2022-09-26T02:41:00.354Z,73.48
2022-09-26T02:44:06.263Z,73.74
2022-09-26T02:47:02.541Z,74.29
2022-09-26T02:49:49.873Z,74.01
2022-09-26T02:52:55.875Z,74.25
2022-09-26T02:56:03.491Z,73.62
2022-09-26T02:58:39.159Z,74.03
2022-09-26T03:01:19.778Z,73.58
2022-09-26T03:04:18.691Z,73.33
2022-09-26T03:06:51.492Z,73.54
2022-09-26T03:09:23.072Z,74.21
2022-09-26T03:11:54.266Z,74.39
2022-09-26T03:14:21.927Z,74.31
2022-09-26T03:16:52.224Z,73.67
2022-09-26T03:19:30.277Z,73.52
2022-09-26T03:22:00.080Z,73.44
2022-09-26T03:24:28.412Z,73.48
2022-09-26T03:27:00.683Z,73.28
2022-09-26T03:29:28.430Z,73.08
2022-09-26T03:31:56.320Z,73.82
2022-09-26T03:34:23.983Z,73.34
2022-09-26T03:36:54.402Z,73.77
2022-09-26T03:39:23.128Z,73.75
2022-09-26T03:41:59.326Z,73.88
2022-09-26T03:44:29.032Z,72.98
2022-09-26T03:47:18.217Z,72.83
2022-09-26T03:49:49.779Z,74.00
2022-09-26T03:52:17.242Z,73.53
2022-09-26T03:54:45.759Z,73.47
2022-09-26T03:57:17.087Z,73.07
2022-09-26T03:59:52.353Z,73.75
2022-09-26T04:02:21.114Z,73.79
2022-09-26T04:04:55.774Z,73.66
2022-09-26T04:07:23.316Z,73.18
2022-09-26T04:09:50.900Z,73.88
2022-09-26T04:12:20.290Z,73.86
2022-09-26T04:14:47.873Z,73.78
2022-09-26T04:17:15.381Z,73.90
2022-09-26T04:19:44.918Z,74.52
2022-09-26T04:22:12.769Z,74.30
2022-09-26T04:24:41.736Z,74.05
2022-09-26T04:27:09.361Z,74.17
2022-09-26T04:29:38.130Z,73.39
2022-09-26T04:32:12.526Z,73.98
2022-09-26T04:34:52.630Z,73.84
2022-09-26T04:37:21.126Z,73.50
2022-09-26T04:39:48.725Z,73.67
2022-09-26T04:42:16.864Z,73.52
2022-09-26T04:44:44.489Z,73.82
2022-09-26T04:47:12.044Z,73.29
2022-09-26T04:49:58.094Z,73.71
2022-09-26T04:52:26.661Z,74.23
2022-09-26T04:54:54.426Z,74.27
2022-09-26T04:57:22.020Z,74.00
2022-09-26T04:59:49.517Z,73.24
2022-09-26T05:02:18.127Z,74.04
2022-09-26T05:04:48.241Z,73.73
2022-09-26T05:07:16.407Z,74.12
2022-09-26T05:09:44.877Z,74.02
2022-09-26T05:12:15.512Z,74.27
2022-09-26T05:14:46.127Z,74.29
2022-09-26T05:17:15.549Z,74.24
2022-09-26T05:19:45.908Z,73.88
2022-09-26T05:22:29.893Z,74.18
2022-09-26T05:25:15.989Z,74.64
2022-09-26T05:27:43.871Z,74.24
2022-09-26T05:30:14.659Z,74.50
2022-09-26T05:32:46.130Z,74.73
2022-09-26T05:35:14.174Z,74.77
2022-09-26T05:37:42.816Z,74.95
2022-09-26T05:40:30.329Z,74.89
2022-09-26T05:43:02.656Z,75.14
2022-09-26T05:45:31.615Z,74.55
2022-09-26T05:48:01.997Z,74.68
2022-09-26T05:50:29.785Z,74.67
2022-09-26T05:52:58.789Z,74.63
2022-09-26T05:55:27.584Z,74.73
2022-09-26T05:57:58.730Z,75.19
2022-09-26T06:00:35.774Z,74.95
2022-09-26T06:03:03.834Z,74.58
2022-09-26T06:05:52.053Z,74.59
2022-09-26T06:08:25.605Z,74.60
2022-09-26T06:11:16.405Z,74.76
2022-09-26T06:13:48.437Z,74.16
2022-09-26T06:16:19.165Z,74.00
2022-09-26T06:18:50.684Z,73.49
2022-09-26T06:21:20.789Z,73.67
2022-09-26T06:23:52.488Z,73.24
2022-09-26T06:26:23.694Z,73.16
2022-09-26T06:29:00.407Z,71.95
2022-09-26T06:31:30.347Z,72.18
2022-09-26T06:34:09.940Z,72.52
2022-09-26T06:36:49.695Z,71.16
2022-09-26T06:39:17.944Z,71.70
2022-09-26T06:41:47.727Z,71.53
2022-09-26T06:44:35.589Z,71.31
2022-09-26T06:47:15.869Z,70.92
2022-09-26T06:49:46.970Z,71.13
2022-09-26T06:52:26.668Z,70.94
2022-09-26T06:54:57.215Z,70.43
2022-09-26T06:57:24.795Z,70.32
2022-09-26T06:59:52.506Z,70.46
2022-09-26T07:02:51.562Z,69.48
2022-09-26T07:05:37.882Z,69.05
2022-09-26T07:08:05.577Z,68.88
2022-09-26T07:10:35.270Z,69.26
2022-09-26T07:13:09.524Z,68.98
2022-09-26T07:15:37.595Z,69.17
2022-09-26T07:18:20.519Z,68.97
2022-09-26T07:21:23.479Z,69.46
2022-09-26T07:24:06.185Z,69.25
2022-09-26T07:26:33.877Z,68.94
2022-09-26T07:29:01.880Z,68.70
2022-09-26T07:31:31.149Z,68.69
2022-09-26T07:34:08.826Z,69.02
2022-09-26T07:36:40.863Z,68.62
2022-09-26T07:39:09.795Z,68.54
2022-09-26T07:41:37.371Z,69.13
2022-09-26T07:44:53.297Z,68.48
2022-09-26T07:47:10.790Z,67.82
2022-09-26T07:49:57.503Z,67.59
2022-09-26T07:52:58.326Z,67.55
2022-09-26T07:55:27.952Z,66.62
2022-09-26T07:58:01.086Z,65.93
2022-09-26T08:00:48.565Z,65.08
2022-09-26T08:03:44.543Z,64.83
2022-09-26T08:06:35.186Z,64.82
2022-09-26T08:09:03.175Z,64.41
2022-09-26T08:11:49.065Z,64.45
2022-09-26T08:14:55.046Z,63.93
2022-09-26T08:17:33.631Z,63.26
2022-09-26T08:20:02.059Z,63.18
2022-09-26T08:22:30.017Z,62.81
2022-09-26T08:25:00.257Z,61.37
2022-09-26T08:27:46.659Z,60.40
2022-09-26T08:30:15.246Z,59.62
2022-09-26T08:32:42.957Z,58.73
2022-09-26T08:35:14.559Z,58.30
2022-09-26T08:37:44.991Z,58.28
2022-09-26T08:40:54.988Z,57.41
2022-09-26T08:43:57.837Z,57.47
2022-09-26T08:47:11.682Z,57.46
2022-09-26T08:50:12.196Z,56.19
2022-09-26T08:53:00.854Z,54.42
2022-09-26T08:55:35.181Z,53.67
2022-09-26T08:58:08.961Z,53.21
2022-09-26T09:00:40.433Z,51.99
2022-09-26T09:03:31.767Z,49.64
2022-09-26T09:06:11.613Z,48.42
2022-09-26T09:08:50.136Z,47.23
2022-09-26T09:11:54.435Z,45.80
2022-09-26T09:14:24.867Z,44.49
2022-09-26T09:17:23.099Z,43.43
2022-09-26T09:20:27.901Z,42.94
2022-09-26T09:23:47.548Z,43.02
2022-09-26T09:29:32.364Z,42.40
2022-09-26T09:32:25.833Z,41.41
2022-09-26T09:35:16.611Z,40.29
2022-09-26T09:38:21.549Z,39.50
2022-09-26T09:41:14.314Z,39.02
2022-09-26T09:43:51.997Z,37.76
2022-09-26T09:46:29.539Z,36.76
2022-09-26T09:49:09.441Z,36.33
2022-09-26T09:52:26.506Z,35.56
2022-09-26T09:55:30.030Z,34.47
2022-09-26T09:58:51.938Z,33.57
2022-09-26T10:01:39.245Z,32.24
2022-09-26T10:04:44.585Z,31.31
2022-09-26T10:07:13.493Z,30.65
2022-09-26T10:09:55.909Z,30.22
2022-09-26T10:12:55.103Z,29.06
2022-09-26T10:16:32.269Z,28.69
2022-09-26T10:19:18.446Z,28.61
2022-09-26T10:21:57.157Z,28.30
2022-09-26T10:24:38.905Z,27.07
2022-09-26T10:27:41.216Z,27.46
2022-09-26T10:30:26.210Z,27.54
2022-09-26T10:33:03.584Z,26.52
2022-09-26T10:36:13.087Z,26.45
2022-09-26T10:39:22.725Z,25.95
2022-09-26T10:42:04.057Z,25.66
2022-09-26T10:44:36.675Z,25.78
2022-09-26T10:47:15.688Z,25.36
2022-09-26T10:50:18.506Z,24.72
2022-09-26T10:53:17.576Z,24.68
2022-09-26T10:55:58.814Z,23.55
2022-09-26T10:58:31.027Z,24.26
2022-09-26T11:01:07.417Z,23.76
2022-09-26T11:03:54.656Z,23.52
2022-09-26T11:06:35.513Z,23.35
2022-09-26T11:09:28.942Z,24.15
2022-09-26T11:12:36.522Z,23.69
2022-09-26T11:15:14.976Z,23.79
2022-09-26T11:17:51.013Z,24.70
2022-09-26T11:20:43.208Z,25.43
2022-09-26T11:23:34.959Z,25.91
2022-09-26T11:26:42.575Z,26.29
2022-09-26T11:29:39.141Z,27.56
2022-09-26T11:32:18.549Z,28.42
2022-09-26T11:35:32.432Z,27.96
2022-09-26T11:38:39.067Z,28.13
2022-09-26T11:41:18.690Z,27.16
2022-09-26T11:43:51.069Z,26.99
2022-09-26T11:47:13.179Z,26.65
2022-09-26T11:50:08.205Z,25.55
2022-09-26T11:53:17.847Z,25.25
2022-09-26T11:56:36.095Z,24.86
2022-09-26T12:00:06.860Z,25.90
2022-09-26T12:03:05.491Z,26.71
2022-09-26T12:06:04.572Z,27.00
2022-09-26T12:08:58.751Z,25.99
2022-09-26T12:11:57.538Z,25.32
2022-09-26T12:14:29.412Z,25.47
2022-09-26T12:17:20.518Z,25.87
2022-09-26T12:20:33.708Z,27.06
2022-09-26T12:23:10.110Z,28.20
2022-09-26T12:26:15.192Z,29.17
2022-09-26T12:29:24.422Z,30.70
2022-09-26T12:32:06.779Z,31.31
2022-09-26T12:35:16.563Z,31.50
2022-09-26T12:38:08.915Z,31.63
2022-09-26T12:40:58.073Z,30.81
2022-09-26T12:43:51.158Z,29.79
2022-09-26T12:46:54.150Z,29.98
2022-09-26T12:49:44.062Z,30.24
2022-09-26T12:52:26.583Z,30.49
2022-09-26T12:55:17.722Z,30.40
2022-09-26T12:58:22.061Z,30.24
2022-09-26T13:01:06.528Z,30.02
2022-09-26T13:03:43.426Z,30.00
2022-09-26T13:06:22.068Z,30.72
2022-09-26T13:09:05.966Z,31.76
2022-09-26T13:11:58.365Z,33.19
2022-09-26T13:14:36.793Z,33.74
2022-09-26T13:17:28.539Z,34.38
2022-09-26T13:20:22.489Z,34.75
2022-09-26T13:23:03.340Z,34.20
2022-09-26T13:25:52.625Z,33.68
2022-09-26T13:28:44.574Z,33.19
2022-09-26T13:31:41.557Z,32.68
2022-09-26T13:34:26.786Z,32.20
2022-09-26T13:36:59.331Z,31.25
2022-09-26T13:39:29.999Z,31.32
2022-09-26T13:42:19.235Z,31.73
2022-09-26T13:45:21.700Z,32.81
2022-09-26T13:48:08.703Z,33.70
2022-09-26T13:50:49.422Z,34.55
2022-09-26T13:53:30.518Z,34.31
2022-09-26T13:56:31.309Z,34.74
2022-09-26T13:59:29.492Z,35.67
2022-09-26T14:02:18.545Z,36.50
2022-09-26T14:04:48.296Z,36.88
2022-09-26T14:07:36.008Z,37.90
2022-09-26T14:10:08.907Z,38.37
2022-09-26T14:13:06.824Z,39.46
2022-09-26T14:15:50.108Z,39.73
2022-09-26T14:19:04.446Z,39.97
2022-09-26T14:21:47.473Z,39.93
2022-09-26T14:24:21.032Z,40.58
2022-09-26T14:27:09.851Z,40.40
2022-09-26T14:29:47.865Z,40.69
2022-09-26T14:32:23.381Z,40.89
2022-09-26T14:34:55.507Z,41.21
2022-09-26T14:37:26.694Z,41.95
2022-09-26T14:40:16.964Z,42.46
2022-09-26T14:42:44.836Z,42.81
2022-09-26T14:45:28.485Z,42.34
2022-09-26T14:48:09.616Z,42.63
2022-09-26T14:50:50.627Z,42.63
2022-09-26T14:54:03.754Z,43.12
2022-09-26T14:56:42.064Z,44.59
2022-09-26T14:59:16.393Z,45.65
2022-09-26T15:01:45.510Z,46.17
2022-09-26T15:04:25.619Z,47.02
2022-09-26T15:07:16.495Z,47.51
2022-09-26T15:10:19.145Z,47.39
2022-09-26T15:13:30.188Z,47.45
2022-09-26T15:16:26.340Z,47.48
2022-09-26T15:19:11.701Z,47.88
2022-09-26T15:21:42.504Z,47.99
2022-09-26T15:24:35.862Z,48.13
2022-09-26T15:27:19.953Z,48.28
2022-09-26T15:29:58.716Z,49.10
2022-09-26T15:32:29.853Z,48.47
2022-09-26T15:35:01.581Z,48.35
2022-09-26T15:40:33.634Z,47.94
2022-09-26T15:43:21.001Z,48.87
2022-09-26T15:45:58.681Z,48.73
2022-09-26T15:48:32.759Z,49.14
2022-09-26T15:51:29.745Z,49.57
2022-09-26T15:54:22.935Z,49.76
2022-09-26T15:57:01.129Z,49.95
2022-09-26T15:59:41.492Z,50.27
2022-09-26T16:02:39.316Z,49.85
2022-09-26T16:05:18.046Z,49.97
2022-09-26T16:07:53.597Z,50.59
2022-09-26T16:10:40.326Z,50.45
2022-09-26T16:13:30.126Z,50.59
2022-09-26T16:16:17.474Z,50.10
2022-09-26T16:18:58.323Z,50.09
2022-09-26T16:21:40.424Z,49.39
2022-09-26T16:24:37.176Z,49.87
2022-09-26T16:27:29.331Z,49.23
2022-09-26T16:30:06.417Z,49.26
2022-09-26T16:32:42.523Z,49.50
2022-09-26T16:35:34.537Z,49.85
2022-09-26T16:38:25.977Z,49.67
2022-09-26T16:40:56.672Z,49.13
2022-09-26T16:43:31.664Z,48.51
2022-09-26T16:46:13.603Z,48.74
2022-09-26T16:48:42.490Z,47.88
2022-09-26T16:51:25.351Z,47.02
2022-09-26T16:54:22.414Z,47.04
2022-09-26T16:56:51.691Z,47.10
2022-09-26T16:59:24.040Z,46.64
2022-09-26T17:01:54.648Z,46.90
2022-09-26T17:04:31.724Z,46.95
2022-09-26T17:07:00.872Z,47.04
2022-09-26T17:09:30.719Z,47.17
2022-09-26T17:12:08.478Z,46.99
2022-09-26T17:14:40.637Z,47.12
2022-09-26T17:17:16.285Z,46.81
2022-09-26T17:19:47.595Z,46.97
2022-09-26T17:22:17.673Z,47.43
2022-09-26T17:24:45.673Z,47.78
2022-09-26T17:27:16.600Z,47.96
2022-09-26T17:29:48.601Z,47.51
2022-09-26T17:32:31.159Z,48.08
2022-09-26T17:35:02.208Z,48.05
2022-09-26T17:37:29.759Z,48.30
2022-09-26T17:39:57.785Z,48.40
2022-09-26T17:42:25.950Z,48.06
2022-09-26T17:44:54.047Z,48.36
2022-09-26T17:47:23.532Z,48.37
2022-09-26T17:49:54.818Z,48.66
2022-09-26T17:52:29.309Z,48.81
2022-09-26T17:55:05.970Z,49.34
2022-09-26T17:57:38.305Z,49.44
2022-09-26T18:00:11.323Z,49.66
2022-09-26T18:02:49.251Z,50.07
2022-09-26T18:05:30.009Z,50.50
2022-09-26T18:08:04.401Z,50.76
2022-09-26T18:10:34.804Z,51.08
2022-09-26T18:13:12.946Z,51.37
2022-09-26T18:15:41.656Z,51.53
2022-09-26T18:18:14.585Z,51.69
2022-09-26T18:20:43.095Z,52.05
2022-09-26T18:23:16.434Z,52.25
2022-09-26T18:25:47.565Z,52.62
2022-09-26T18:28:20.538Z,52.46
2022-09-26T18:30:56.850Z,52.37
2022-09-26T18:33:27.942Z,52.36
2022-09-26T18:35:55.627Z,52.60
2022-09-26T18:38:23.114Z,52.61
2022-09-26T18:40:55.922Z,53.23
2022-09-26T18:43:28.079Z,53.11
2022-09-26T18:45:57.637Z,52.51
2022-09-26T18:48:30.022Z,52.59
2022-09-26T18:50:57.775Z,52.37
2022-09-26T18:53:29.523Z,52.56
2022-09-26T18:56:15.847Z,52.77
2022-09-26T18:58:44.061Z,52.93
2022-09-26T19:01:16.871Z,52.74
2022-09-26T19:03:51.074Z,52.90
2022-09-26T19:06:23.285Z,52.51
2022-09-26T19:08:57.565Z,52.37
2022-09-26T19:11:29.302Z,52.16
2022-09-26T19:13:58.656Z,52.17
2022-09-26T19:16:26.477Z,52.23
2022-09-26T19:18:54.059Z,52.83
2022-09-26T19:21:36.429Z,52.08
2022-09-26T19:24:20.339Z,52.28
2022-09-26T19:26:57.527Z,52.35
2022-09-26T19:29:37.318Z,52.26
2022-09-26T19:32:06.364Z,52.91
2022-09-26T19:34:34.089Z,52.96
2022-09-26T19:37:03.223Z,52.58
2022-09-26T19:39:31.850Z,52.71
2022-09-26T19:41:59.375Z,52.87
2022-09-26T19:44:26.930Z,52.67
2022-09-26T19:46:54.723Z,52.77
2022-09-26T19:49:23.715Z,52.73
2022-09-26T19:51:51.289Z,53.06
2022-09-26T19:54:19.652Z,53.11
2022-09-26T19:56:47.854Z,52.83
2022-09-26T19:59:17.298Z,52.96
2022-09-26T20:01:48.337Z,53.08
2022-09-26T20:04:19.244Z,53.04
2022-09-26T20:06:47.434Z,53.62
2022-09-26T20:09:19.810Z,53.74
2022-09-26T20:11:47.360Z,53.34
2022-09-26T20:14:23.948Z,53.73
2022-09-26T20:16:56.215Z,54.46
2022-09-26T20:19:34.498Z,54.86
2022-09-26T20:22:04.860Z,55.13
2022-09-26T20:24:33.650Z,55.34
2022-09-26T20:27:03.488Z,55.51
2022-09-26T20:29:51.454Z,56.19
2022-09-26T20:32:19.356Z,55.95
2022-09-26T20:34:47.008Z,55.99
2022-09-26T20:37:14.862Z,56.26
2022-09-26T20:39:42.814Z,56.30
2022-09-26T20:42:17.608Z,57.22
2022-09-26T20:44:48.670Z,56.50
2022-09-26T20:47:19.839Z,57.98
2022-09-26T20:49:55.244Z,57.16
2022-09-26T20:52:26.099Z,57.59
2022-09-26T20:54:55.339Z,57.04
2022-09-26T20:57:24.332Z,57.44
2022-09-26T20:59:52.226Z,57.29
2022-09-26T21:02:35.913Z,57.49
2022-09-26T21:05:10.924Z,57.21
2022-09-26T21:07:38.536Z,57.51
2022-09-26T21:10:21.865Z,58.01
2022-09-26T21:12:50.159Z,58.05
2022-09-26T21:15:18.411Z,58.24
2022-09-26T21:17:47.887Z,58.88
2022-09-26T21:20:20.764Z,58.60
2022-09-26T21:22:58.208Z,58.73
2022-09-26T21:25:30.140Z,58.81
2022-09-26T21:28:01.690Z,58.69
2022-09-26T21:30:30.754Z,58.53
2022-09-26T21:32:59.920Z,58.51
2022-09-26T21:35:31.486Z,59.18
2022-09-26T21:38:01.152Z,59.54
2022-09-26T21:40:32.496Z,59.19
2022-09-26T21:43:07.785Z,59.72
2022-09-26T21:45:35.593Z,60.26
2022-09-26T21:48:03.280Z,60.03
2022-09-26T21:50:31.169Z,60.57
2022-09-26T21:53:11.297Z,60.28
2022-09-26T21:55:43.226Z,59.59
2022-09-26T21:58:18.855Z,59.92
2022-09-26T22:00:46.471Z,60.53
2022-09-26T22:03:14.263Z,59.73
2022-09-26T22:05:42.574Z,59.80
2022-09-26T22:08:10.181Z,59.85
2022-09-26T22:10:37.724Z,59.31
2022-09-26T22:13:05.573Z,60.15
2022-09-26T22:15:33.102Z,60.15
2022-09-26T22:18:01.122Z,59.81
2022-09-26T22:20:28.658Z,60.50
2022-09-26T22:22:56.212Z,60.12
2022-09-26T22:25:23.718Z,59.84
2022-09-26T22:27:51.243Z,60.02
2022-09-26T22:30:18.787Z,60.22
2022-09-26T22:32:46.332Z,60.48
2022-09-26T22:35:14.385Z,59.56
2022-09-26T22:37:41.828Z,60.19
2022-09-26T22:40:09.528Z,59.33
2022-09-26T22:42:37.217Z,60.19
2022-09-26T22:45:05.109Z,59.62
2022-09-26T22:47:32.596Z,59.48
2022-09-26T22:50:00.313Z,59.85
2022-09-26T22:52:27.795Z,60.59
2022-09-26T22:54:55.377Z,60.37
2022-09-26T22:57:23.317Z,60.17
2022-09-26T22:59:50.846Z,60.86
2022-09-26T23:02:18.377Z,59.94
2022-09-26T23:04:48.799Z,60.59
2022-09-26T23:07:19.880Z,60.41
2022-09-26T23:09:47.448Z,60.78
2022-09-26T23:12:15.256Z,60.96
2022-09-26T23:14:42.925Z,61.82
2022-09-26T23:17:10.855Z,61.68
2022-09-26T23:19:38.498Z,61.65
2022-09-26T23:22:06.079Z,61.92
2022-09-26T23:24:33.627Z,62.47
2022-09-26T23:27:01.188Z,61.83
2022-09-26T23:29:28.825Z,61.84
2022-09-26T23:31:56.409Z,62.10
2022-09-26T23:34:23.967Z,62.35
2022-09-26T23:36:51.472Z,61.70
2022-09-26T23:39:19.111Z,62.33
2022-09-26T23:41:46.618Z,62.57
2022-09-26T23:44:14.305Z,62.99
2022-09-26T23:46:42.087Z,62.21
